sensor_id;sensor_type;location;lat;lon;timestamp;temperature;humidity
1506;DHT22;744;51.436;7.356;2023-07-13T00:00:27;23.50;30.00
1506;DHT22;744;51.436;7.356;2023-07-13T00:02:54;23.40;30.00
1506;DHT22;744;51.436;7.356;2023-07-13T00:05:22;23.40;30.20
1506;DHT22;744;51.436;7.356;2023-07-13T00:07:50;23.30;30.40
1506;DHT22;744;51.436;7.356;2023-07-13T00:10:17;23.30;31.20
1506;DHT22;744;51.436;7.356;2023-07-13T00:12:44;23.30;31.20
1506;DHT22;744;51.436;7.356;2023-07-13T00:15:17;23.30;31.20
1506;DHT22;744;51.436;7.356;2023-07-13T00:17:47;23.30;31.20
1506;DHT22;744;51.436;7.356;2023-07-13T00:20:14;23.20;31.20
1506;DHT22;744;51.436;7.356;2023-07-13T00:22:41;23.20;31.20
1506;DHT22;744;51.436;7.356;2023-07-13T00:25:11;23.20;31.20
1506;DHT22;744;51.436;7.356;2023-07-13T00:27:38;23.20;31.20
1506;DHT22;744;51.436;7.356;2023-07-13T00:30:06;23.10;31.10
1506;DHT22;744;51.436;7.356;2023-07-13T00:32:33;23.00;31.00
1506;DHT22;744;51.436;7.356;2023-07-13T00:35:00;23.00;31.20
1506;DHT22;744;51.436;7.356;2023-07-13T00:37:27;22.90;31.10
1506;DHT22;744;51.436;7.356;2023-07-13T00:39:54;22.90;31.50
1506;DHT22;744;51.436;7.356;2023-07-13T00:42:21;22.90;31.60
1506;DHT22;744;51.436;7.356;2023-07-13T00:47:53;22.80;32.00
1506;DHT22;744;51.436;7.356;2023-07-13T00:50:21;22.80;32.10
1506;DHT22;744;51.436;7.356;2023-07-13T00:52:52;22.70;32.00
1506;DHT22;744;51.436;7.356;2023-07-13T00:55:21;22.70;32.20
1506;DHT22;744;51.436;7.356;2023-07-13T00:57:48;22.60;32.20
1506;DHT22;744;51.436;7.356;2023-07-13T01:00:16;22.60;32.50
1506;DHT22;744;51.436;7.356;2023-07-13T01:02:45;22.50;32.40
1506;DHT22;744;51.436;7.356;2023-07-13T01:05:19;22.50;32.50
1506;DHT22;744;51.436;7.356;2023-07-13T01:07:48;22.50;32.40
1506;DHT22;744;51.436;7.356;2023-07-13T01:10:17;22.50;32.60
1506;DHT22;744;51.436;7.356;2023-07-13T01:12:44;22.40;32.30
1506;DHT22;744;51.436;7.356;2023-07-13T01:15:34;22.40;32.70
1506;DHT22;744;51.436;7.356;2023-07-13T01:18:01;22.40;32.80
1506;DHT22;744;51.436;7.356;2023-07-13T01:20:29;22.30;32.90
1506;DHT22;744;51.436;7.356;2023-07-13T01:22:56;22.20;32.90
1506;DHT22;744;51.436;7.356;2023-07-13T01:25:23;22.20;32.90
1506;DHT22;744;51.436;7.356;2023-07-13T01:27:50;22.10;33.00
1506;DHT22;744;51.436;7.356;2023-07-13T01:30:17;22.10;33.10
1506;DHT22;744;51.436;7.356;2023-07-13T01:32:43;22.10;33.20
1506;DHT22;744;51.436;7.356;2023-07-13T01:35:10;22.00;33.30
1506;DHT22;744;51.436;7.356;2023-07-13T01:37:39;22.00;33.40
1506;DHT22;744;51.436;7.356;2023-07-13T01:40:06;22.00;33.40
1506;DHT22;744;51.436;7.356;2023-07-13T01:42:35;22.00;33.50
1506;DHT22;744;51.436;7.356;2023-07-13T01:45:01;22.00;33.40
1506;DHT22;744;51.436;7.356;2023-07-13T01:47:29;22.00;33.50
1506;DHT22;744;51.436;7.356;2023-07-13T01:49:58;21.90;33.30
1506;DHT22;744;51.436;7.356;2023-07-13T01:52:24;21.90;33.50
1506;DHT22;744;51.436;7.356;2023-07-13T01:54:51;22.00;33.50
1506;DHT22;744;51.436;7.356;2023-07-13T01:57:18;21.90;33.30
1506;DHT22;744;51.436;7.356;2023-07-13T01:59:45;21.80;34.00
1506;DHT22;744;51.436;7.356;2023-07-13T02:02:12;21.80;33.60
1506;DHT22;744;51.436;7.356;2023-07-13T02:04:39;21.80;33.70
1506;DHT22;744;51.436;7.356;2023-07-13T02:07:06;21.80;33.70
1506;DHT22;744;51.436;7.356;2023-07-13T02:09:34;21.70;33.90
1506;DHT22;744;51.436;7.356;2023-07-13T02:12:01;21.70;33.90
1506;DHT22;744;51.436;7.356;2023-07-13T02:14:28;21.70;33.80
1506;DHT22;744;51.436;7.356;2023-07-13T02:16:55;21.70;33.80
1506;DHT22;744;51.436;7.356;2023-07-13T02:19:22;21.70;33.90
1506;DHT22;744;51.436;7.356;2023-07-13T02:21:49;21.70;34.70
1506;DHT22;744;51.436;7.356;2023-07-13T02:24:16;21.70;34.00
1506;DHT22;744;51.436;7.356;2023-07-13T02:26:44;21.60;34.30
1506;DHT22;744;51.436;7.356;2023-07-13T02:29:11;21.60;34.40
1506;DHT22;744;51.436;7.356;2023-07-13T02:31:38;21.50;34.50
1506;DHT22;744;51.436;7.356;2023-07-13T02:34:05;21.50;35.10
1506;DHT22;744;51.436;7.356;2023-07-13T02:36:32;21.50;34.40
1506;DHT22;744;51.436;7.356;2023-07-13T02:39:02;21.50;34.40
1506;DHT22;744;51.436;7.356;2023-07-13T02:41:29;21.50;34.40
1506;DHT22;744;51.436;7.356;2023-07-13T02:43:58;21.50;34.50
1506;DHT22;744;51.436;7.356;2023-07-13T02:46:33;21.50;34.40
1506;DHT22;744;51.436;7.356;2023-07-13T02:49:01;21.50;34.50
1506;DHT22;744;51.436;7.356;2023-07-13T02:51:28;21.50;34.50
1506;DHT22;744;51.436;7.356;2023-07-13T02:53:55;21.40;34.40
1506;DHT22;744;51.436;7.356;2023-07-13T02:56:24;21.40;34.40
1506;DHT22;744;51.436;7.356;2023-07-13T02:58:52;21.40;34.40
1506;DHT22;744;51.436;7.356;2023-07-13T03:01:18;21.40;34.40
1506;DHT22;744;51.436;7.356;2023-07-13T03:03:46;21.40;34.40
1506;DHT22;744;51.436;7.356;2023-07-13T03:06:14;21.40;34.40
1506;DHT22;744;51.436;7.356;2023-07-13T03:08:41;21.40;34.50
1506;DHT22;744;51.436;7.356;2023-07-13T03:11:11;21.40;34.40
1506;DHT22;744;51.436;7.356;2023-07-13T03:13:39;21.40;34.60
1506;DHT22;744;51.436;7.356;2023-07-13T03:16:08;21.30;34.40
1506;DHT22;744;51.436;7.356;2023-07-13T03:18:36;21.30;34.40
1506;DHT22;744;51.436;7.356;2023-07-13T03:21:04;21.30;34.60
1506;DHT22;744;51.436;7.356;2023-07-13T03:23:31;21.20;34.60
1506;DHT22;744;51.436;7.356;2023-07-13T03:26:08;21.20;34.80
1506;DHT22;744;51.436;7.356;2023-07-13T03:28:36;21.20;35.00
1506;DHT22;744;51.436;7.356;2023-07-13T03:31:12;21.10;35.10
1506;DHT22;744;51.436;7.356;2023-07-13T03:33:39;21.10;35.30
1506;DHT22;744;51.436;7.356;2023-07-13T03:36:09;21.00;35.40
1506;DHT22;744;51.436;7.356;2023-07-13T03:38:36;21.00;35.50
1506;DHT22;744;51.436;7.356;2023-07-13T03:41:03;20.90;35.60
1506;DHT22;744;51.436;7.356;2023-07-13T03:43:30;21.00;35.70
1506;DHT22;744;51.436;7.356;2023-07-13T03:45:57;21.00;35.90
1506;DHT22;744;51.436;7.356;2023-07-13T03:48:24;21.00;35.90
1506;DHT22;744;51.436;7.356;2023-07-13T03:50:51;21.00;35.90
1506;DHT22;744;51.436;7.356;2023-07-13T03:53:18;21.00;36.00
1506;DHT22;744;51.436;7.356;2023-07-13T03:55:45;21.00;35.90
1506;DHT22;744;51.436;7.356;2023-07-13T03:58:33;21.00;36.00
1506;DHT22;744;51.436;7.356;2023-07-13T04:01:01;21.10;36.10
1506;DHT22;744;51.436;7.356;2023-07-13T04:03:30;21.00;36.10
1506;DHT22;744;51.436;7.356;2023-07-13T04:06:00;21.00;36.00
1506;DHT22;744;51.436;7.356;2023-07-13T04:08:31;21.00;36.00
1506;DHT22;744;51.436;7.356;2023-07-13T04:11:00;21.00;36.40
1506;DHT22;744;51.436;7.356;2023-07-13T04:13:28;20.90;36.30
1506;DHT22;744;51.436;7.356;2023-07-13T04:15:55;20.90;36.40
1506;DHT22;744;51.436;7.356;2023-07-13T04:18:22;20.90;36.60
1506;DHT22;744;51.436;7.356;2023-07-13T04:20:50;21.00;36.60
1506;DHT22;744;51.436;7.356;2023-07-13T04:23:17;21.00;36.70
1506;DHT22;744;51.436;7.356;2023-07-13T04:25:45;20.90;36.70
1506;DHT22;744;51.436;7.356;2023-07-13T04:28:12;20.80;37.00
1506;DHT22;744;51.436;7.356;2023-07-13T04:30:39;20.80;37.10
1506;DHT22;744;51.436;7.356;2023-07-13T04:33:07;20.80;37.10
1506;DHT22;744;51.436;7.356;2023-07-13T04:35:35;20.80;37.20
1506;DHT22;744;51.436;7.356;2023-07-13T04:38:02;20.70;37.30
1506;DHT22;744;51.436;7.356;2023-07-13T04:40:29;20.70;37.60
1506;DHT22;744;51.436;7.356;2023-07-13T04:42:56;20.70;37.60
1506;DHT22;744;51.436;7.356;2023-07-13T04:45:24;20.70;37.60
1506;DHT22;744;51.436;7.356;2023-07-13T04:47:51;20.70;37.60
1506;DHT22;744;51.436;7.356;2023-07-13T04:50:19;20.60;38.00
1506;DHT22;744;51.436;7.356;2023-07-13T04:52:52;20.60;38.00
1506;DHT22;744;51.436;7.356;2023-07-13T04:55:20;20.70;38.10
1506;DHT22;744;51.436;7.356;2023-07-13T04:57:47;20.60;38.40
1506;DHT22;744;51.436;7.356;2023-07-13T05:00:15;20.50;38.30
1506;DHT22;744;51.436;7.356;2023-07-13T05:02:44;20.50;38.30
1506;DHT22;744;51.436;7.356;2023-07-13T05:05:14;20.50;38.30
1506;DHT22;744;51.436;7.356;2023-07-13T05:07:41;20.60;38.40
1506;DHT22;744;51.436;7.356;2023-07-13T05:10:08;20.70;38.50
1506;DHT22;744;51.436;7.356;2023-07-13T05:12:36;20.70;38.50
1506;DHT22;744;51.436;7.356;2023-07-13T05:15:03;20.60;38.40
1506;DHT22;744;51.436;7.356;2023-07-13T05:17:30;20.70;38.50
1506;DHT22;744;51.436;7.356;2023-07-13T05:19:57;20.70;38.50
1506;DHT22;744;51.436;7.356;2023-07-13T05:22:24;20.70;39.10
1506;DHT22;744;51.436;7.356;2023-07-13T05:24:51;20.80;38.60
1506;DHT22;744;51.436;7.356;2023-07-13T05:27:18;20.80;38.60
1506;DHT22;744;51.436;7.356;2023-07-13T05:29:44;20.90;38.60
1506;DHT22;744;51.436;7.356;2023-07-13T05:32:11;20.90;38.60
1506;DHT22;744;51.436;7.356;2023-07-13T05:34:38;20.90;38.60
1506;DHT22;744;51.436;7.356;2023-07-13T05:37:05;20.90;38.60
1506;DHT22;744;51.436;7.356;2023-07-13T05:39:32;20.80;38.50
1506;DHT22;744;51.436;7.356;2023-07-13T05:41:59;20.80;38.60
1506;DHT22;744;51.436;7.356;2023-07-13T05:44:26;20.80;38.60
1506;DHT22;744;51.436;7.356;2023-07-13T05:46:52;20.80;38.60
1506;DHT22;744;51.436;7.356;2023-07-13T05:49:19;20.90;38.60
1506;DHT22;744;51.436;7.356;2023-07-13T05:51:46;21.00;38.70
1506;DHT22;744;51.436;7.356;2023-07-13T05:54:13;21.10;38.80
1506;DHT22;744;51.436;7.356;2023-07-13T05:56:40;21.00;38.70
1506;DHT22;744;51.436;7.356;2023-07-13T05:59:07;21.00;38.70
1506;DHT22;744;51.436;7.356;2023-07-13T06:01:34;21.10;38.80
1506;DHT22;744;51.436;7.356;2023-07-13T06:04:01;21.20;39.50
1506;DHT22;744;51.436;7.356;2023-07-13T06:06:28;21.10;38.80
1506;DHT22;744;51.436;7.356;2023-07-13T06:08:55;21.10;38.80
1506;DHT22;744;51.436;7.356;2023-07-13T06:11:26;21.10;38.80
1506;DHT22;744;51.436;7.356;2023-07-13T06:13:54;21.00;39.30
1506;DHT22;744;51.436;7.356;2023-07-13T06:16:21;21.00;39.50
1506;DHT22;744;51.436;7.356;2023-07-13T06:18:47;21.10;39.30
1506;DHT22;744;51.436;7.356;2023-07-13T06:21:18;21.00;39.40
1506;DHT22;744;51.436;7.356;2023-07-13T06:23:47;20.80;39.90
1506;DHT22;744;51.436;7.356;2023-07-13T06:26:20;20.80;40.10
1506;DHT22;744;51.436;7.356;2023-07-13T06:28:48;20.80;40.10
1506;DHT22;744;51.436;7.356;2023-07-13T06:31:15;20.90;40.20
1506;DHT22;744;51.436;7.356;2023-07-13T06:33:43;20.90;40.20
1506;DHT22;744;51.436;7.356;2023-07-13T06:36:11;20.80;40.30
1506;DHT22;744;51.436;7.356;2023-07-13T06:38:38;20.80;40.50
1506;DHT22;744;51.436;7.356;2023-07-13T06:41:07;20.90;40.60
1506;DHT22;744;51.436;7.356;2023-07-13T06:43:34;20.90;40.70
1506;DHT22;744;51.436;7.356;2023-07-13T06:46:01;20.90;40.80
1506;DHT22;744;51.436;7.356;2023-07-13T06:48:28;20.90;40.80
1506;DHT22;744;51.436;7.356;2023-07-13T06:50:55;20.90;40.80
1506;DHT22;744;51.436;7.356;2023-07-13T06:53:23;20.90;41.10
1506;DHT22;744;51.436;7.356;2023-07-13T06:55:50;20.90;41.20
1506;DHT22;744;51.436;7.356;2023-07-13T06:58:18;21.00;41.30
1506;DHT22;744;51.436;7.356;2023-07-13T07:00:46;21.10;41.00
1506;DHT22;744;51.436;7.356;2023-07-13T07:03:13;21.10;40.80
1506;DHT22;744;51.436;7.356;2023-07-13T07:05:40;21.20;41.00
1506;DHT22;744;51.436;7.356;2023-07-13T07:08:07;21.40;40.90
1506;DHT22;744;51.436;7.356;2023-07-13T07:10:34;21.40;40.90
1506;DHT22;744;51.436;7.356;2023-07-13T07:13:02;21.30;40.50
1506;DHT22;744;51.436;7.356;2023-07-13T07:15:30;21.20;41.00
1506;DHT22;744;51.436;7.356;2023-07-13T07:17:57;21.10;41.10
1506;DHT22;744;51.436;7.356;2023-07-13T07:20:24;21.10;41.20
1506;DHT22;744;51.436;7.356;2023-07-13T07:22:51;21.20;41.10
1506;DHT22;744;51.436;7.356;2023-07-13T07:25:18;21.20;41.10
1506;DHT22;744;51.436;7.356;2023-07-13T07:27:45;21.20;40.80
1506;DHT22;744;51.436;7.356;2023-07-13T07:30:15;21.20;41.10
1506;DHT22;744;51.436;7.356;2023-07-13T07:32:45;21.30;41.10
1506;DHT22;744;51.436;7.356;2023-07-13T07:35:15;21.40;40.90
1506;DHT22;744;51.436;7.356;2023-07-13T07:37:41;21.30;40.70
1506;DHT22;744;51.436;7.356;2023-07-13T07:40:11;21.40;40.70
1506;DHT22;744;51.436;7.356;2023-07-13T07:42:41;21.50;40.70
1506;DHT22;744;51.436;7.356;2023-07-13T07:45:08;21.50;40.50
1506;DHT22;744;51.436;7.356;2023-07-13T07:47:38;21.60;40.60
1506;DHT22;744;51.436;7.356;2023-07-13T07:50:05;21.60;40.30
1506;DHT22;744;51.436;7.356;2023-07-13T07:52:33;21.50;40.50
1506;DHT22;744;51.436;7.356;2023-07-13T07:55:00;21.70;40.30
1506;DHT22;744;51.436;7.356;2023-07-13T07:57:30;21.70;40.20
1506;DHT22;744;51.436;7.356;2023-07-13T08:00:00;21.70;40.40
1506;DHT22;744;51.436;7.356;2023-07-13T08:02:29;21.80;40.30
1506;DHT22;744;51.436;7.356;2023-07-13T08:04:59;21.70;40.20
1506;DHT22;744;51.436;7.356;2023-07-13T08:07:30;21.70;40.40
1506;DHT22;744;51.436;7.356;2023-07-13T08:09:58;21.70;40.60
1506;DHT22;744;51.436;7.356;2023-07-13T08:12:24;21.80;40.60
1506;DHT22;744;51.436;7.356;2023-07-13T08:14:54;21.80;40.30
1506;DHT22;744;51.436;7.356;2023-07-13T08:17:25;21.70;40.60
1506;DHT22;744;51.436;7.356;2023-07-13T08:19:53;21.70;40.40
1506;DHT22;744;51.436;7.356;2023-07-13T08:22:20;21.70;40.40
1506;DHT22;744;51.436;7.356;2023-07-13T08:24:46;21.70;40.40
1506;DHT22;744;51.436;7.356;2023-07-13T08:27:25;21.80;40.40
1506;DHT22;744;51.436;7.356;2023-07-13T08:29:53;21.80;40.30
1506;DHT22;744;51.436;7.356;2023-07-13T08:32:21;21.80;40.20
1506;DHT22;744;51.436;7.356;2023-07-13T08:34:48;21.90;40.60
1506;DHT22;744;51.436;7.356;2023-07-13T08:37:16;22.10;41.00
1506;DHT22;744;51.436;7.356;2023-07-13T08:39:43;22.10;39.70
1506;DHT22;744;51.436;7.356;2023-07-13T08:42:42;22.10;39.80
1506;DHT22;744;51.436;7.356;2023-07-13T08:45:14;22.10;40.30
1506;DHT22;744;51.436;7.356;2023-07-13T08:47:49;22.00;39.60
1506;DHT22;744;51.436;7.356;2023-07-13T08:50:18;22.10;39.80
1506;DHT22;744;51.436;7.356;2023-07-13T08:52:47;22.20;39.80
1506;DHT22;744;51.436;7.356;2023-07-13T08:55:24;22.30;39.90
1506;DHT22;744;51.436;7.356;2023-07-13T08:58:13;22.40;39.90
1506;DHT22;744;51.436;7.356;2023-07-13T09:00:56;22.60;40.10
1506;DHT22;744;51.436;7.356;2023-07-13T09:03:31;22.60;40.00
1506;DHT22;744;51.436;7.356;2023-07-13T09:06:03;22.70;39.90
1506;DHT22;744;51.436;7.356;2023-07-13T09:08:46;22.70;39.60
1506;DHT22;744;51.436;7.356;2023-07-13T09:16:40;23.00;39.20
1506;DHT22;744;51.436;7.356;2023-07-13T09:19:11;23.10;38.90
1506;DHT22;744;51.436;7.356;2023-07-13T09:21:42;23.10;38.90
1506;DHT22;744;51.436;7.356;2023-07-13T09:24:31;23.00;38.80
1506;DHT22;744;51.436;7.356;2023-07-13T09:27:01;23.10;38.50
1506;DHT22;744;51.436;7.356;2023-07-13T09:29:34;23.00;38.60
1506;DHT22;744;51.436;7.356;2023-07-13T09:32:04;23.10;38.30
1506;DHT22;744;51.436;7.356;2023-07-13T09:34:33;23.20;38.30
1506;DHT22;744;51.436;7.356;2023-07-13T09:37:00;23.30;38.20
1506;DHT22;744;51.436;7.356;2023-07-13T09:39:34;23.50;38.10
1506;DHT22;744;51.436;7.356;2023-07-13T09:44:42;23.80;37.70
1506;DHT22;744;51.436;7.356;2023-07-13T09:47:18;23.80;37.30
1506;DHT22;744;51.436;7.356;2023-07-13T09:49:46;23.90;37.20
1506;DHT22;744;51.436;7.356;2023-07-13T09:52:16;23.60;36.80
1506;DHT22;744;51.436;7.356;2023-07-13T09:54:50;23.50;37.40
1506;DHT22;744;51.436;7.356;2023-07-13T09:57:19;23.70;37.40
1506;DHT22;744;51.436;7.356;2023-07-13T09:59:57;23.60;37.10
1506;DHT22;744;51.436;7.356;2023-07-13T10:02:31;23.70;37.40
1506;DHT22;744;51.436;7.356;2023-07-13T10:05:04;23.80;37.20
1506;DHT22;744;51.436;7.356;2023-07-13T10:07:32;23.90;37.20
1506;DHT22;744;51.436;7.356;2023-07-13T10:10:15;23.80;36.90
1506;DHT22;744;51.436;7.356;2023-07-13T10:12:43;23.80;36.50
1506;DHT22;744;51.436;7.356;2023-07-13T10:15:20;23.70;37.00
1506;DHT22;744;51.436;7.356;2023-07-13T10:17:51;23.80;36.40
1506;DHT22;744;51.436;7.356;2023-07-13T10:20:20;23.70;36.70
1506;DHT22;744;51.436;7.356;2023-07-13T10:23:08;23.80;36.60
1506;DHT22;744;51.436;7.356;2023-07-13T10:25:39;23.80;36.60
1506;DHT22;744;51.436;7.356;2023-07-13T10:28:29;23.60;36.40
1506;DHT22;744;51.436;7.356;2023-07-13T10:30:58;23.40;36.50
1506;DHT22;744;51.436;7.356;2023-07-13T10:33:27;23.40;36.90
1506;DHT22;744;51.436;7.356;2023-07-13T10:38:53;23.50;36.80
1506;DHT22;744;51.436;7.356;2023-07-13T10:41:24;23.50;36.50
1506;DHT22;744;51.436;7.356;2023-07-13T10:43:54;23.60;36.30
1506;DHT22;744;51.436;7.356;2023-07-13T10:46:24;23.60;36.30
1506;DHT22;744;51.436;7.356;2023-07-13T10:49:04;23.50;36.20
1506;DHT22;744;51.436;7.356;2023-07-13T10:51:32;23.60;36.30
1506;DHT22;744;51.436;7.356;2023-07-13T10:54:19;23.70;36.40
1506;DHT22;744;51.436;7.356;2023-07-13T10:59:39;23.80;36.00
1506;DHT22;744;51.436;7.356;2023-07-13T11:02:25;23.70;36.30
1506;DHT22;744;51.436;7.356;2023-07-13T11:04:54;23.70;36.40
1506;DHT22;744;51.436;7.356;2023-07-13T11:07:28;23.80;36.40
1506;DHT22;744;51.436;7.356;2023-07-13T11:10:00;23.90;36.20
1506;DHT22;744;51.436;7.356;2023-07-13T11:12:53;23.90;36.10
1506;DHT22;744;51.436;7.356;2023-07-13T11:15:44;24.00;36.00
1506;DHT22;744;51.436;7.356;2023-07-13T11:18:23;24.10;36.00
1506;DHT22;744;51.436;7.356;2023-07-13T11:20:51;24.10;36.00
1506;DHT22;744;51.436;7.356;2023-07-13T11:23:27;24.00;36.30
1506;DHT22;744;51.436;7.356;2023-07-13T11:25:54;24.00;36.00
1506;DHT22;744;51.436;7.356;2023-07-13T11:28:25;24.10;36.00
1506;DHT22;744;51.436;7.356;2023-07-13T11:36:10;24.30;35.70
1506;DHT22;744;51.436;7.356;2023-07-13T11:38:40;24.30;35.10
1506;DHT22;744;51.436;7.356;2023-07-13T11:41:36;24.20;35.10
1506;DHT22;744;51.436;7.356;2023-07-13T11:44:19;24.20;35.10
1506;DHT22;744;51.436;7.356;2023-07-13T11:46:49;24.50;35.10
1506;DHT22;744;51.436;7.356;2023-07-13T11:49:23;24.60;34.60
1506;DHT22;744;51.436;7.356;2023-07-13T11:51:51;24.70;34.80
1506;DHT22;744;51.436;7.356;2023-07-13T11:54:30;24.70;34.50
1506;DHT22;744;51.436;7.356;2023-07-13T11:57:30;24.80;34.60
1506;DHT22;744;51.436;7.356;2023-07-13T11:59:55;25.00;34.20
1506;DHT22;744;51.436;7.356;2023-07-13T12:02:29;24.90;32.70
1506;DHT22;744;51.436;7.356;2023-07-13T12:04:59;24.80;32.80
1506;DHT22;744;51.436;7.356;2023-07-13T12:07:29;24.80;33.50
1506;DHT22;744;51.436;7.356;2023-07-13T12:12:54;24.80;32.60
1506;DHT22;744;51.436;7.356;2023-07-13T12:15:23;24.60;32.40
1506;DHT22;744;51.436;7.356;2023-07-13T12:17:51;24.40;32.20
1506;DHT22;744;51.436;7.356;2023-07-13T12:20:25;24.50;32.30
1506;DHT22;744;51.436;7.356;2023-07-13T12:22:52;24.50;32.30
1506;DHT22;744;51.436;7.356;2023-07-13T12:25:22;24.60;32.40
1506;DHT22;744;51.436;7.356;2023-07-13T12:27:51;24.80;32.50
1506;DHT22;744;51.436;7.356;2023-07-13T12:30:32;24.90;32.70
1506;DHT22;744;51.436;7.356;2023-07-13T12:33:07;25.00;31.60
1506;DHT22;744;51.436;7.356;2023-07-13T12:35:49;24.90;30.90
1506;DHT22;744;51.436;7.356;2023-07-13T12:38:16;24.70;30.70
1506;DHT22;744;51.436;7.356;2023-07-13T12:40:43;24.80;30.80
1506;DHT22;744;51.436;7.356;2023-07-13T12:43:14;24.90;30.80
1506;DHT22;744;51.436;7.356;2023-07-13T12:46:03;25.00;30.90
1506;DHT22;744;51.436;7.356;2023-07-13T12:48:39;25.20;31.30
1506;DHT22;744;51.436;7.356;2023-07-13T12:51:16;25.30;31.00
1506;DHT22;744;51.436;7.356;2023-07-13T12:53:49;25.30;30.50
1506;DHT22;744;51.436;7.356;2023-07-13T12:56:22;25.20;31.50
1506;DHT22;744;51.436;7.356;2023-07-13T12:58:50;25.30;30.90
1506;DHT22;744;51.436;7.356;2023-07-13T13:01:22;25.40;31.10
1506;DHT22;744;51.436;7.356;2023-07-13T13:03:52;25.50;30.60
1506;DHT22;744;51.436;7.356;2023-07-13T13:06:21;25.50;30.60
1506;DHT22;744;51.436;7.356;2023-07-13T13:08:57;25.50;31.20
1506;DHT22;744;51.436;7.356;2023-07-13T13:11:30;25.70;30.60
1506;DHT22;744;51.436;7.356;2023-07-13T13:13:57;25.70;30.00
1506;DHT22;744;51.436;7.356;2023-07-13T13:16:30;25.70;29.90
1506;DHT22;744;51.436;7.356;2023-07-13T13:19:14;25.80;29.70
1506;DHT22;744;51.436;7.356;2023-07-13T13:21:45;25.80;29.40
1506;DHT22;744;51.436;7.356;2023-07-13T13:24:15;25.70;29.40
1506;DHT22;744;51.436;7.356;2023-07-13T13:26:43;25.70;29.60
1506;DHT22;744;51.436;7.356;2023-07-13T13:29:22;25.70;29.60
1506;DHT22;744;51.436;7.356;2023-07-13T13:31:52;25.80;29.40
1506;DHT22;744;51.436;7.356;2023-07-13T13:34:21;25.70;29.50
1506;DHT22;744;51.436;7.356;2023-07-13T13:36:50;25.60;29.80
1506;DHT22;744;51.436;7.356;2023-07-13T13:41:49;25.50;31.40
1506;DHT22;744;51.436;7.356;2023-07-13T13:44:17;25.30;30.60
1506;DHT22;744;51.436;7.356;2023-07-13T13:46:47;25.30;30.30
1506;DHT22;744;51.436;7.356;2023-07-13T13:49:17;25.30;30.00
1506;DHT22;744;51.436;7.356;2023-07-13T13:51:45;25.20;30.20
1506;DHT22;744;51.436;7.356;2023-07-13T13:54:16;25.10;30.10
1506;DHT22;744;51.436;7.356;2023-07-13T13:56:45;24.90;30.40
1506;DHT22;744;51.436;7.356;2023-07-13T13:59:12;24.60;32.40
1506;DHT22;744;51.436;7.356;2023-07-13T14:01:40;24.00;34.60
1506;DHT22;744;51.436;7.356;2023-07-13T14:04:20;23.60;36.30
1506;DHT22;744;51.436;7.356;2023-07-13T14:06:48;23.50;36.50
1506;DHT22;744;51.436;7.356;2023-07-13T14:09:18;23.30;37.00
1506;DHT22;744;51.436;7.356;2023-07-13T14:11:47;23.20;37.80
1506;DHT22;744;51.436;7.356;2023-07-13T14:14:24;23.10;38.10
1506;DHT22;744;51.436;7.356;2023-07-13T14:16:52;23.00;38.30
1506;DHT22;744;51.436;7.356;2023-07-13T14:19:22;22.90;38.30
1506;DHT22;744;51.436;7.356;2023-07-13T14:21:49;22.90;38.50
1506;DHT22;744;51.436;7.356;2023-07-13T14:24:19;22.90;38.40
1506;DHT22;744;51.436;7.356;2023-07-13T14:26:47;23.00;38.30
1506;DHT22;744;51.436;7.356;2023-07-13T14:29:19;23.30;37.90
1506;DHT22;744;51.436;7.356;2023-07-13T14:31:50;23.40;37.20
1506;DHT22;744;51.436;7.356;2023-07-13T14:34:17;23.40;36.90
1506;DHT22;744;51.436;7.356;2023-07-13T14:36:46;23.40;37.00
1506;DHT22;744;51.436;7.356;2023-07-13T14:39:22;23.50;36.90
1506;DHT22;744;51.436;7.356;2023-07-13T14:41:51;23.70;36.80
1506;DHT22;744;51.436;7.356;2023-07-13T14:44:24;23.60;37.00
1506;DHT22;744;51.436;7.356;2023-07-13T14:46:52;23.40;38.10
1506;DHT22;744;51.436;7.356;2023-07-13T14:52:05;23.40;39.60
1506;DHT22;744;51.436;7.356;2023-07-13T14:54:37;23.30;39.80
1506;DHT22;744;51.436;7.356;2023-07-13T14:57:16;23.30;40.20
1506;DHT22;744;51.436;7.356;2023-07-13T14:59:43;23.10;40.50
1506;DHT22;744;51.436;7.356;2023-07-13T15:02:16;23.00;40.50
1506;DHT22;744;51.436;7.356;2023-07-13T15:04:44;23.00;41.30
1506;DHT22;744;51.436;7.356;2023-07-13T15:07:12;23.00;41.60
1506;DHT22;744;51.436;7.356;2023-07-13T15:09:42;22.90;42.00
1506;DHT22;744;51.436;7.356;2023-07-13T15:12:09;22.80;41.70
1506;DHT22;744;51.436;7.356;2023-07-13T15:14:36;22.80;41.30
1506;DHT22;744;51.436;7.356;2023-07-13T15:17:03;22.90;41.40
1506;DHT22;744;51.436;7.356;2023-07-13T15:19:30;22.90;41.10
1506;DHT22;744;51.436;7.356;2023-07-13T15:21:57;22.80;41.10
1506;DHT22;744;51.436;7.356;2023-07-13T15:24:25;22.90;41.00
1506;DHT22;744;51.436;7.356;2023-07-13T15:26:52;23.00;40.70
1506;DHT22;744;51.436;7.356;2023-07-13T15:29:19;23.00;40.50
1506;DHT22;744;51.436;7.356;2023-07-13T15:31:46;23.00;40.50
1506;DHT22;744;51.436;7.356;2023-07-13T15:34:15;23.40;40.80
1506;DHT22;744;51.436;7.356;2023-07-13T15:36:43;23.80;41.00
1506;DHT22;744;51.436;7.356;2023-07-13T15:39:14;23.90;40.20
1506;DHT22;744;51.436;7.356;2023-07-13T15:41:43;23.90;40.00
1506;DHT22;744;51.436;7.356;2023-07-13T15:44:40;23.80;40.20
1506;DHT22;744;51.436;7.356;2023-07-13T15:47:11;23.90;39.60
1506;DHT22;744;51.436;7.356;2023-07-13T15:49:39;23.90;39.70
1506;DHT22;744;51.436;7.356;2023-07-13T15:52:15;24.00;39.60
1506;DHT22;744;51.436;7.356;2023-07-13T15:54:43;24.10;39.60
1506;DHT22;744;51.436;7.356;2023-07-13T15:57:10;24.10;39.60
1506;DHT22;744;51.436;7.356;2023-07-13T15:59:39;24.20;39.50
1506;DHT22;744;51.436;7.356;2023-07-13T16:02:18;24.10;39.40
1506;DHT22;744;51.436;7.356;2023-07-13T16:04:46;24.10;39.30
1506;DHT22;744;51.436;7.356;2023-07-13T16:07:15;23.90;39.40
1506;DHT22;744;51.436;7.356;2023-07-13T16:09:45;23.80;39.60
1506;DHT22;744;51.436;7.356;2023-07-13T16:12:14;23.70;40.90
1506;DHT22;744;51.436;7.356;2023-07-13T16:14:42;23.60;41.00
1506;DHT22;744;51.436;7.356;2023-07-13T16:17:12;23.50;41.20
1506;DHT22;744;51.436;7.356;2023-07-13T16:19:41;23.40;42.50
1506;DHT22;744;51.436;7.356;2023-07-13T16:22:15;23.00;43.30
1506;DHT22;744;51.436;7.356;2023-07-13T16:24:43;22.90;44.60
1506;DHT22;744;51.436;7.356;2023-07-13T16:27:12;22.80;44.50
1506;DHT22;744;51.436;7.356;2023-07-13T16:29:39;23.00;44.70
1506;DHT22;744;51.436;7.356;2023-07-13T16:34:39;23.10;45.20
1506;DHT22;744;51.436;7.356;2023-07-13T16:37:28;23.20;45.20
1506;DHT22;744;51.436;7.356;2023-07-13T16:39:57;23.20;44.80
1506;DHT22;744;51.436;7.356;2023-07-13T16:42:25;23.00;45.00
1506;DHT22;744;51.436;7.356;2023-07-13T16:44:53;23.10;45.20
1506;DHT22;744;51.436;7.356;2023-07-13T16:47:22;23.00;45.10
1506;DHT22;744;51.436;7.356;2023-07-13T16:49:52;23.10;45.20
1506;DHT22;744;51.436;7.356;2023-07-13T16:52:20;23.20;45.30
1506;DHT22;744;51.436;7.356;2023-07-13T16:54:48;23.30;45.90
1506;DHT22;744;51.436;7.356;2023-07-13T16:57:21;23.30;46.20
1506;DHT22;744;51.436;7.356;2023-07-13T16:59:52;23.30;46.60
1506;DHT22;744;51.436;7.356;2023-07-13T17:02:31;23.30;47.00
1506;DHT22;744;51.436;7.356;2023-07-13T17:04:59;23.20;47.40
1506;DHT22;744;51.436;7.356;2023-07-13T17:07:26;23.20;47.30